Time,TemperatureF,DewpointF,PressureIn,WindDirection,WindDirectionDegrees,WindSpeedMPH,WindSpeedGustMPH,Humidity,HourlyPrecipIn,Conditions,Clouds,dailyrainin,SoftwareType,DateUTC
2017-06-24 00:03:00,59.5,52.0,29.86,SE,124,0.0,0.0,77,0.00,,,0.00,weatherlink.com 1.10,2017-06-24 07:03:00,
2017-06-24 00:18:00,59.6,53.0,29.86,SE,124,0.0,0.0,79,0.00,,,0.00,weatherlink.com 1.10,2017-06-24 07:18:00,
2017-06-24 00:33:00,58.9,52.0,29.86,SE,124,0.0,0.0,79,0.00,,,0.00,weatherlink.com 1.10,2017-06-24 07:33:00,
2017-06-24 00:49:00,58.5,52.0,29.86,SE,124,0.0,0.0,79,0.00,,,0.00,weatherlink.com 1.10,2017-06-24 07:49:00,
2017-06-24 01:04:00,58.7,51.0,29.86,SE,124,0.0,0.0,76,0.00,,,0.00,weatherlink.com 1.10,2017-06-24 08:04:00,
2017-06-24 01:19:00,58.7,51.0,29.85,SE,124,0.0,0.0,75,0.00,,,0.00,weatherlink.com 1.10,2017-06-24 08:19:00,
2017-06-24 01:34:00,58.8,51.0,29.85,SE,124,0.0,1.0,76,0.00,,,0.00,weatherlink.com 1.10,2017-06-24 08:34:00,
2017-06-24 01:49:00,58.4,49.0,29.85,ESE,113,0.0,1.0,72,0.00,,,0.00,weatherlink.com 1.10,2017-06-24 08:49:00,
2017-06-24 02:04:00,58.0,47.0,29.85,SW,221,0.0,1.0,66,0.00,,,0.00,weatherlink.com 1.10,2017-06-24 09:04:00,
2017-06-24 02:19:00,57.8,42.0,29.85,SW,222,0.0,1.0,56,0.00,,,0.00,weatherlink.com 1.10,2017-06-24 09:19:00,
2017-06-24 02:34:00,57.6,40.0,29.84,NNE,13,0.0,1.0,52,0.00,,,0.00,weatherlink.com 1.10,2017-06-24 09:34:00,
2017-06-24 02:49:00,57.7,38.0,29.84,ENE,63,0.0,2.0,48,0.00,,,0.00,weatherlink.com 1.10,2017-06-24 09:49:00,
2017-06-24 03:04:00,57.8,37.0,29.84,WSW,239,0.0,1.0,46,0.00,,,0.00,weatherlink.com 1.10,2017-06-24 10:04:00,
2017-06-24 03:19:00,57.9,36.0,29.84,South,191,0.0,1.0,44,0.00,,,0.00,weatherlink.com 1.10,2017-06-24 10:19:00,
2017-06-24 03:34:00,58.0,35.0,29.84,SSW,207,0.0,1.0,43,0.00,,,0.00,weatherlink.com 1.10,2017-06-24 10:34:00,
2017-06-24 03:49:00,58.1,35.0,29.85,SSW,207,0.0,0.0,42,0.00,,,0.00,weatherlink.com 1.10,2017-06-24 10:49:00,
2017-06-24 04:04:00,56.2,44.0,29.85,SSW,207,0.0,0.0,65,0.00,,,0.00,weatherlink.com 1.10,2017-06-24 11:04:00,
2017-06-24 04:19:00,56.2,43.0,29.84,SSW,207,0.0,0.0,61,0.00,,,0.00,weatherlink.com 1.10,2017-06-24 11:19:00,
2017-06-24 04:34:00,56.5,46.0,29.84,SSW,207,0.0,0.0,67,0.00,,,0.00,weatherlink.com 1.10,2017-06-24 11:34:00,
2017-06-24 04:50:00,55.9,46.0,29.86,SSW,207,0.0,0.0,69,0.00,,,0.00,weatherlink.com 1.10,2017-06-24 11:50:00,
2017-06-24 05:04:00,55.5,42.0,29.86,SSW,208,0.0,0.0,62,0.00,,,0.00,weatherlink.com 1.10,2017-06-24 12:04:00,
2017-06-24 05:19:00,55.3,41.0,29.86,SSW,208,0.0,0.0,58,0.00,,,0.00,weatherlink.com 1.10,2017-06-24 12:19:00,
2017-06-24 05:34:00,55.0,39.0,29.86,SSW,208,0.0,0.0,56,0.00,,,0.00,weatherlink.com 1.10,2017-06-24 12:34:00,
2017-06-24 05:49:00,54.7,40.0,29.87,SSW,208,0.0,0.0,57,0.00,,,0.00,weatherlink.com 1.10,2017-06-24 12:49:00,
2017-06-24 06:04:00,54.9,36.0,29.87,SSW,208,0.0,1.0,50,0.00,,,0.00,weatherlink.com 1.10,2017-06-24 13:04:00,
2017-06-24 06:19:00,54.6,38.0,29.88,SSW,197,0.0,1.0,54,0.00,,,0.00,weatherlink.com 1.10,2017-06-24 13:19:00,
2017-06-24 06:34:00,54.8,37.0,29.87,SSW,197,0.0,0.0,51,0.00,,,0.00,weatherlink.com 1.10,2017-06-24 13:34:00,
2017-06-24 06:50:00,55.2,32.0,29.87,SSW,197,0.0,0.0,42,0.00,,,0.00,weatherlink.com 1.10,2017-06-24 13:50:00,
2017-06-24 07:04:00,56.2,24.0,29.88,SSW,198,0.0,0.0,29,0.00,,,0.00,weatherlink.com 1.10,2017-06-24 14:04:00,
2017-06-24 07:19:00,57.4,23.0,29.88,SSW,198,0.0,0.0,26,0.00,,,0.00,weatherlink.com 1.10,2017-06-24 14:19:00,
2017-06-24 07:34:00,58.1,33.0,29.89,SSE,149,0.0,0.0,39,0.00,,,0.00,weatherlink.com 1.10,2017-06-24 14:34:00,
2017-06-24 07:49:00,58.6,41.0,29.88,SSW,195,0.0,1.0,53,0.00,,,0.00,weatherlink.com 1.10,2017-06-24 14:49:00,
2017-06-24 08:04:00,58.9,43.0,29.88,NNW,333,0.0,1.0,55,0.00,,,0.00,weatherlink.com 1.10,2017-06-24 15:04:00,
2017-06-24 08:19:00,60.0,44.0,29.89,SSW,208,0.0,0.0,56,0.00,,,0.00,weatherlink.com 1.10,2017-06-24 15:19:00,
2017-06-24 08:34:00,61.2,52.0,29.89,ESE,107,0.0,2.0,72,0.00,,,0.00,weatherlink.com 1.10,2017-06-24 15:34:00,
2017-06-24 08:49:00,62.5,56.0,29.88,SE,131,0.0,1.0,78,0.00,,,0.00,weatherlink.com 1.10,2017-06-24 15:49:00,
2017-06-24 09:05:00,64.3,58.0,29.88,South,177,0.0,2.0,80,0.00,,,0.00,weatherlink.com 1.10,2017-06-24 16:05:00,
2017-06-24 09:20:00,67.3,60.0,29.89,West,259,0.0,1.0,78,0.00,,,0.00,weatherlink.com 1.10,2017-06-24 16:20:00,
2017-06-24 09:35:00,69.5,61.0,29.88,SW,231,0.0,1.0,75,0.00,,,0.00,weatherlink.com 1.10,2017-06-24 16:35:00,
2017-06-24 09:50:00,71.0,62.0,29.88,South,184,0.0,1.0,72,0.00,,,0.00,weatherlink.com 1.10,2017-06-24 16:50:00,
2017-06-24 10:05:00,73.2,63.0,29.88,SSW,194,0.0,0.0,70,0.00,,,0.00,weatherlink.com 1.10,2017-06-24 17:05:00,
2017-06-24 10:20:00,74.3,62.0,29.89,WSW,240,0.0,1.0,65,0.00,,,0.00,weatherlink.com 1.10,2017-06-24 17:20:00,
2017-06-24 10:35:00,74.8,62.0,29.88,WSW,256,0.0,1.0,65,0.00,,,0.00,weatherlink.com 1.10,2017-06-24 17:35:00,
2017-06-24 10:50:00,75.2,62.0,29.89,North,8,0.0,2.0,64,0.00,,,0.00,weatherlink.com 1.10,2017-06-24 17:50:00,
2017-06-24 11:05:00,76.1,63.0,29.89,SSE,163,0.0,1.0,65,0.00,,,0.00,weatherlink.com 1.10,2017-06-24 18:05:00,
2017-06-24 11:20:00,77.0,63.0,29.88,SE,143,0.0,1.0,63,0.00,,,0.00,weatherlink.com 1.10,2017-06-24 18:20:00,
2017-06-24 11:35:00,77.6,63.0,29.89,SSE,150,0.0,2.0,61,0.00,,,0.00,weatherlink.com 1.10,2017-06-24 18:35:00,
2017-06-24 11:50:00,76.1,63.0,29.89,SE,128,0.0,2.0,63,0.00,,,0.00,weatherlink.com 1.10,2017-06-24 18:50:00,
2017-06-24 12:05:00,77.2,63.0,29.89,WNW,300,0.0,2.0,62,0.00,,,0.00,weatherlink.com 1.10,2017-06-24 19:05:00,
2017-06-24 12:20:00,78.6,63.0,29.88,NNE,14,0.0,4.0,60,0.00,,,0.00,weatherlink.com 1.10,2017-06-24 19:20:00,
2017-06-24 12:35:00,80.6,64.0,29.88,SW,215,0.0,1.0,57,0.00,,,0.00,weatherlink.com 1.10,2017-06-24 19:35:00,
2017-06-24 12:50:00,79.9,63.0,29.88,SSE,155,1.0,2.0,57,0.00,,,0.00,weatherlink.com 1.10,2017-06-24 19:50:00,
2017-06-24 13:05:00,80.5,65.0,29.87,SSW,204,0.0,1.0,60,0.00,,,0.00,weatherlink.com 1.10,2017-06-24 20:05:00,
2017-06-24 13:20:00,81.7,65.0,29.86,North,4,0.0,1.0,58,0.00,,,0.00,weatherlink.com 1.10,2017-06-24 20:20:00,
2017-06-24 13:35:00,84.3,66.0,29.87,South,170,0.0,1.0,54,0.00,,,0.00,weatherlink.com 1.10,2017-06-24 20:35:00,
2017-06-24 13:50:00,84.5,66.0,29.86,WNW,287,0.0,1.0,54,0.00,,,0.00,weatherlink.com 1.10,2017-06-24 20:50:00,
2017-06-24 14:05:00,83.9,65.0,29.86,West,273,1.0,2.0,53,0.00,,,0.00,weatherlink.com 1.10,2017-06-24 21:05:00,
2017-06-24 14:20:00,86.6,67.0,29.86,West,268,1.0,2.0,52,0.00,,,0.00,weatherlink.com 1.10,2017-06-24 21:20:00,
2017-06-24 14:35:00,88.0,66.0,29.85,ESE,117,0.0,4.0,49,0.00,,,0.00,weatherlink.com 1.10,2017-06-24 21:35:00,
2017-06-24 14:51:00,86.7,66.0,29.84,ESE,120,0.0,3.0,50,0.00,,,0.00,weatherlink.com 1.10,2017-06-24 21:51:00,
2017-06-24 15:06:00,84.2,65.0,29.85,West,280,0.0,2.0,53,0.00,,,0.00,weatherlink.com 1.10,2017-06-24 22:06:00,
2017-06-24 15:20:00,79.6,63.0,29.86,ENE,65,0.0,3.0,58,0.00,,,0.00,weatherlink.com 1.10,2017-06-24 22:20:00,
2017-06-24 15:36:00,75.7,62.0,29.86,South,184,0.0,4.0,62,0.00,,,0.00,weatherlink.com 1.10,2017-06-24 22:36:00,
2017-06-24 15:50:00,73.8,60.0,29.86,West,267,0.0,3.0,63,0.00,,,0.00,weatherlink.com 1.10,2017-06-24 22:50:00,
2017-06-24 16:05:00,74.2,62.0,29.87,SE,145,0.0,3.0,65,0.00,,,0.00,weatherlink.com 1.10,2017-06-24 23:05:00,
2017-06-24 16:21:00,74.8,62.0,29.85,WNW,287,0.0,3.0,64,0.00,,,0.00,weatherlink.com 1.10,2017-06-24 23:21:00,
2017-06-24 16:35:00,73.9,62.0,29.87,West,271,0.0,1.0,66,0.00,,,0.00,weatherlink.com 1.10,2017-06-24 23:35:00,
2017-06-24 16:50:00,74.4,62.0,29.86,West,264,0.0,1.0,65,0.00,,,0.00,weatherlink.com 1.10,2017-06-24 23:50:00,